sensor_id;sensor_type;location;lat;lon;timestamp;pressure;altitude;pressure_sealevel;temperature;humidity
50696;BME280;36665;51.786;21.594;2022-07-23T00:07:01;100017.61;;;19.56;65.13
50696;BME280;36665;51.786;21.594;2022-07-23T00:15:24;100019.30;;;19.44;65.01
50696;BME280;36665;51.786;21.594;2022-07-23T00:23:47;100021.56;;;19.26;64.99
50696;BME280;36665;51.786;21.594;2022-07-23T00:32:13;100024.15;;;19.13;65.45
50696;BME280;36665;51.786;21.594;2022-07-23T00:40:42;100025.22;;;19.06;65.59
50696;BME280;36665;51.786;21.594;2022-07-23T00:49:07;100023.38;;;19.03;65.90
50696;BME280;36665;51.786;21.594;2022-07-23T00:57:31;100024.88;;;19.06;66.11
50696;BME280;36665;51.786;21.594;2022-07-23T01:05:54;100023.02;;;19.03;66.01
50696;BME280;36665;51.786;21.594;2022-07-23T01:14:18;100017.54;;;18.97;66.00
50696;BME280;36665;51.786;21.594;2022-07-23T01:22:42;100021.46;;;18.87;65.77
50696;BME280;36665;51.786;21.594;2022-07-23T01:31:06;100023.70;;;18.64;65.90
50696;BME280;36665;51.786;21.594;2022-07-23T01:39:31;100020.52;;;18.54;66.33
50696;BME280;36665;51.786;21.594;2022-07-23T01:47:56;100020.52;;;18.51;66.41
50696;BME280;36665;51.786;21.594;2022-07-23T01:56:19;100024.25;;;18.37;66.14
50696;BME280;36665;51.786;21.594;2022-07-23T02:04:44;100028.41;;;18.12;66.50
50696;BME280;36665;51.786;21.594;2022-07-23T02:13:08;100028.99;;;18.04;66.88
50696;BME280;36665;51.786;21.594;2022-07-23T02:21:31;100022.92;;;18.00;66.95
50696;BME280;36665;51.786;21.594;2022-07-23T02:29:54;100019.06;;;17.87;66.77
50696;BME280;36665;51.786;21.594;2022-07-23T02:38:17;100019.33;;;17.58;66.75
50696;BME280;36665;51.786;21.594;2022-07-23T02:46:41;100004.75;;;17.48;67.23
50696;BME280;36665;51.786;21.594;2022-07-23T02:55:05;100006.52;;;17.47;67.47
50696;BME280;36665;51.786;21.594;2022-07-23T03:03:30;100018.86;;;17.49;67.68
50696;BME280;36665;51.786;21.594;2022-07-23T03:11:53;100012.48;;;17.57;68.19
50696;BME280;36665;51.786;21.594;2022-07-23T03:20:16;100007.69;;;17.55;68.10
50696;BME280;36665;51.786;21.594;2022-07-23T03:28:41;99997.36;;;17.50;68.16
50696;BME280;36665;51.786;21.594;2022-07-23T03:37:04;100003.67;;;17.53;68.62
50696;BME280;36665;51.786;21.594;2022-07-23T03:45:28;100005.66;;;17.64;69.19
50696;BME280;36665;51.786;21.594;2022-07-23T03:53:51;100018.06;;;17.93;69.43
50696;BME280;36665;51.786;21.594;2022-07-23T04:02:14;100023.23;;;18.40;69.87
50696;BME280;36665;51.786;21.594;2022-07-23T04:10:37;100024.99;;;18.99;70.15
50696;BME280;36665;51.786;21.594;2022-07-23T04:19:01;100029.17;;;19.64;69.80
50696;BME280;36665;51.786;21.594;2022-07-23T04:27:35;100028.14;;;20.28;69.45
50696;BME280;36665;51.786;21.594;2022-07-23T04:35:58;100022.61;;;20.90;68.93
50696;BME280;36665;51.786;21.594;2022-07-23T04:44:23;100010.25;;;21.55;68.78
50696;BME280;36665;51.786;21.594;2022-07-23T04:52:48;100005.99;;;22.26;68.10
50696;BME280;36665;51.786;21.594;2022-07-23T05:01:13;99999.71;;;22.96;67.59
50696;BME280;36665;51.786;21.594;2022-07-23T05:09:36;100002.80;;;23.61;67.04
50696;BME280;36665;51.786;21.594;2022-07-23T05:18:00;100004.92;;;24.29;66.31
50696;BME280;36665;51.786;21.594;2022-07-23T05:26:26;100005.11;;;24.95;65.01
50696;BME280;36665;51.786;21.594;2022-07-23T05:34:50;100005.15;;;25.55;64.61
50696;BME280;36665;51.786;21.594;2022-07-23T05:43:13;100008.36;;;26.16;64.09
50696;BME280;36665;51.786;21.594;2022-07-23T05:51:37;100003.33;;;26.60;62.40
50696;BME280;36665;51.786;21.594;2022-07-23T06:00:06;100005.40;;;26.86;61.53
50696;BME280;36665;51.786;21.594;2022-07-23T06:08:35;100009.74;;;27.41;61.53
50696;BME280;36665;51.786;21.594;2022-07-23T06:16:58;100015.95;;;27.91;60.37
50696;BME280;36665;51.786;21.594;2022-07-23T06:25:23;100013.66;;;28.34;59.63
50696;BME280;36665;51.786;21.594;2022-07-23T06:33:46;100015.45;;;28.78;59.12
50696;BME280;36665;51.786;21.594;2022-07-23T06:42:09;100015.40;;;29.33;58.56
50696;BME280;36665;51.786;21.594;2022-07-23T06:50:39;100016.59;;;29.88;57.69
50696;BME280;36665;51.786;21.594;2022-07-23T06:59:02;100021.98;;;30.29;56.75
50696;BME280;36665;51.786;21.594;2022-07-23T07:07:26;100009.11;;;30.60;55.43
50696;BME280;36665;51.786;21.594;2022-07-23T07:15:49;100005.55;;;30.85;54.77
50696;BME280;36665;51.786;21.594;2022-07-23T07:24:14;100003.45;;;31.18;53.96
50696;BME280;36665;51.786;21.594;2022-07-23T07:32:39;99998.69;;;31.40;52.75
50696;BME280;36665;51.786;21.594;2022-07-23T07:41:21;100000.48;;;31.41;51.74
50696;BME280;36665;51.786;21.594;2022-07-23T07:49:49;100002.81;;;31.58;51.58
50696;BME280;36665;51.786;21.594;2022-07-23T07:58:12;100004.25;;;31.77;50.56
50696;BME280;36665;51.786;21.594;2022-07-23T08:06:35;100004.89;;;31.95;50.18
50696;BME280;36665;51.786;21.594;2022-07-23T08:14:58;100002.70;;;32.05;49.79
50696;BME280;36665;51.786;21.594;2022-07-23T08:23:48;99998.11;;;32.27;48.87
50696;BME280;36665;51.786;21.594;2022-07-23T08:32:12;99994.46;;;32.45;48.48
50696;BME280;36665;51.786;21.594;2022-07-23T08:40:56;99990.05;;;32.73;48.12
50696;BME280;36665;51.786;21.594;2022-07-23T08:49:22;99983.36;;;32.84;47.07
50696;BME280;36665;51.786;21.594;2022-07-23T08:57:52;99984.20;;;32.88;46.28
50696;BME280;36665;51.786;21.594;2022-07-23T09:06:16;99984.51;;;33.00;45.44
50696;BME280;36665;51.786;21.594;2022-07-23T09:14:43;99982.19;;;33.19;45.42
50696;BME280;36665;51.786;21.594;2022-07-23T09:23:07;99983.11;;;33.34;44.41
50696;BME280;36665;51.786;21.594;2022-07-23T09:32:00;99984.91;;;33.39;43.76
50696;BME280;36665;51.786;21.594;2022-07-23T09:40:30;99976.92;;;33.62;43.32
50696;BME280;36665;51.786;21.594;2022-07-23T09:48:55;99970.13;;;33.67;42.08
50696;BME280;36665;51.786;21.594;2022-07-23T09:57:21;99962.46;;;33.69;42.16
50696;BME280;36665;51.786;21.594;2022-07-23T10:05:48;99964.08;;;33.64;41.74
50696;BME280;36665;51.786;21.594;2022-07-23T10:14:52;99957.66;;;33.57;41.40
50696;BME280;36665;51.786;21.594;2022-07-23T10:23:40;99954.23;;;33.69;41.37
50696;BME280;36665;51.786;21.594;2022-07-23T10:40:58;99934.27;;;33.71;40.21
50696;BME280;36665;51.786;21.594;2022-07-23T10:49:29;99930.96;;;33.73;39.91
50696;BME280;36665;51.786;21.594;2022-07-23T10:57:56;99929.45;;;33.58;40.05
50696;BME280;36665;51.786;21.594;2022-07-23T11:06:22;99931.14;;;33.70;39.96
50696;BME280;36665;51.786;21.594;2022-07-23T11:15:05;99935.14;;;33.48;39.44
50696;BME280;36665;51.786;21.594;2022-07-23T11:32:29;99918.01;;;33.38;40.49
50696;BME280;36665;51.786;21.594;2022-07-23T11:40:57;99924.98;;;33.55;39.75
50696;BME280;36665;51.786;21.594;2022-07-23T11:49:21;99922.52;;;33.22;39.67
50696;BME280;36665;51.786;21.594;2022-07-23T11:57:44;99916.15;;;32.97;39.72
50696;BME280;36665;51.786;21.594;2022-07-23T12:06:10;99905.16;;;33.03;39.71
50696;BME280;36665;51.786;21.594;2022-07-23T12:14:51;99891.30;;;33.30;39.44
50696;BME280;36665;51.786;21.594;2022-07-23T12:23:17;99875.71;;;33.57;39.40
50696;BME280;36665;51.786;21.594;2022-07-23T12:31:45;99871.72;;;33.80;39.01
50696;BME280;36665;51.786;21.594;2022-07-23T12:40:37;99870.33;;;33.76;37.87
50696;BME280;36665;51.786;21.594;2022-07-23T12:49:03;99853.84;;;33.79;37.83
50696;BME280;36665;51.786;21.594;2022-07-23T12:57:50;99844.15;;;33.79;37.67
50696;BME280;36665;51.786;21.594;2022-07-23T13:06:13;99841.09;;;33.92;37.17
50696;BME280;36665;51.786;21.594;2022-07-23T13:14:36;99828.45;;;33.93;36.76
50696;BME280;36665;51.786;21.594;2022-07-23T13:23:07;99816.64;;;33.74;36.91
50696;BME280;36665;51.786;21.594;2022-07-23T13:31:30;99803.27;;;33.71;36.95
50696;BME280;36665;51.786;21.594;2022-07-23T13:39:56;99789.06;;;33.71;37.33
50696;BME280;36665;51.786;21.594;2022-07-23T13:48:25;99777.64;;;33.77;37.02
50696;BME280;36665;51.786;21.594;2022-07-23T13:56:49;99783.76;;;33.63;36.77
50696;BME280;36665;51.786;21.594;2022-07-23T14:05:11;99796.23;;;33.56;36.77
50696;BME280;36665;51.786;21.594;2022-07-23T14:13:37;99796.84;;;33.53;36.81
50696;BME280;36665;51.786;21.594;2022-07-23T14:22:00;99798.33;;;33.29;36.81
50696;BME280;36665;51.786;21.594;2022-07-23T14:30:28;99805.56;;;32.87;37.27
50696;BME280;36665;51.786;21.594;2022-07-23T14:38:58;99806.13;;;32.70;37.62
50696;BME280;36665;51.786;21.594;2022-07-23T14:47:23;99805.48;;;32.41;38.17
50696;BME280;36665;51.786;21.594;2022-07-23T14:55:49;99801.86;;;32.08;38.40
50696;BME280;36665;51.786;21.594;2022-07-23T15:04:12;99805.27;;;31.67;38.49
50696;BME280;36665;51.786;21.594;2022-07-23T15:12:55;99802.09;;;31.28;38.54
50696;BME280;36665;51.786;21.594;2022-07-23T15:21:22;99797.14;;;30.87;38.78
50696;BME280;36665;51.786;21.594;2022-07-23T15:29:45;99792.37;;;30.49;39.28
50696;BME280;36665;51.786;21.594;2022-07-23T15:38:11;99791.98;;;30.16;39.55
50696;BME280;36665;51.786;21.594;2022-07-23T15:46:37;99788.21;;;29.91;40.20
50696;BME280;36665;51.786;21.594;2022-07-23T15:55:00;99869.78;;;29.19;40.94
50696;BME280;36665;51.786;21.594;2022-07-23T16:03:22;99899.10;;;27.53;41.99
50696;BME280;36665;51.786;21.594;2022-07-23T16:11:45;99920.23;;;26.19;44.09
50696;BME280;36665;51.786;21.594;2022-07-23T16:20:12;99926.36;;;25.10;45.95
50696;BME280;36665;51.786;21.594;2022-07-23T16:28:35;99937.86;;;24.43;47.84
50696;BME280;36665;51.786;21.594;2022-07-23T16:36:58;99930.81;;;23.93;49.17
50696;BME280;36665;51.786;21.594;2022-07-23T16:45:21;99924.84;;;23.58;50.56
50696;BME280;36665;51.786;21.594;2022-07-23T16:53:44;99917.05;;;23.24;51.43
50696;BME280;36665;51.786;21.594;2022-07-23T17:02:09;99908.15;;;22.91;52.33
50696;BME280;36665;51.786;21.594;2022-07-23T17:10:32;99906.52;;;22.77;52.82
50696;BME280;36665;51.786;21.594;2022-07-23T17:18:55;99898.87;;;22.56;53.17
50696;BME280;36665;51.786;21.594;2022-07-23T17:27:22;99905.11;;;22.33;53.76
50696;BME280;36665;51.786;21.594;2022-07-23T17:35:46;99893.27;;;22.04;54.57
50696;BME280;36665;51.786;21.594;2022-07-23T17:44:11;99881.21;;;21.75;55.34
50696;BME280;36665;51.786;21.594;2022-07-23T17:52:48;99876.32;;;21.52;55.99
50696;BME280;36665;51.786;21.594;2022-07-23T18:01:15;99889.56;;;21.40;56.58
50696;BME280;36665;51.786;21.594;2022-07-23T18:09:42;99892.67;;;21.43;57.19
50696;BME280;36665;51.786;21.594;2022-07-23T18:18:07;99882.51;;;21.43;57.52
50696;BME280;36665;51.786;21.594;2022-07-23T18:26:30;99865.38;;;21.31;57.70
50696;BME280;36665;51.786;21.594;2022-07-23T18:34:53;99861.44;;;21.21;58.01
50696;BME280;36665;51.786;21.594;2022-07-23T18:43:20;99873.90;;;21.12;58.50
50696;BME280;36665;51.786;21.594;2022-07-23T18:51:43;99886.42;;;21.15;58.67
50696;BME280;36665;51.786;21.594;2022-07-23T19:00:08;99880.00;;;21.18;58.71
50696;BME280;36665;51.786;21.594;2022-07-23T19:08:35;99880.32;;;21.14;58.90
50696;BME280;36665;51.786;21.594;2022-07-23T19:16:58;99882.38;;;21.12;58.97
50696;BME280;36665;51.786;21.594;2022-07-23T19:25:22;99882.51;;;21.07;59.06
50696;BME280;36665;51.786;21.594;2022-07-23T19:33:49;99894.55;;;21.01;59.67
50696;BME280;36665;51.786;21.594;2022-07-23T19:42:13;99888.07;;;20.87;59.60
50696;BME280;36665;51.786;21.594;2022-07-23T19:50:36;99897.44;;;20.69;59.92
50696;BME280;36665;51.786;21.594;2022-07-23T19:58:59;99908.45;;;20.55;60.46
50696;BME280;36665;51.786;21.594;2022-07-23T20:07:22;99910.36;;;20.46;60.75
50696;BME280;36665;51.786;21.594;2022-07-23T20:15:46;99910.03;;;20.38;60.93
50696;BME280;36665;51.786;21.594;2022-07-23T20:24:20;99924.55;;;20.28;61.47
50696;BME280;36665;51.786;21.594;2022-07-23T20:32:45;99948.20;;;20.19;61.81
50696;BME280;36665;51.786;21.594;2022-07-23T20:41:08;99966.88;;;20.10;62.31
50696;BME280;36665;51.786;21.594;2022-07-23T20:49:31;99971.11;;;20.05;62.76
50696;BME280;36665;51.786;21.594;2022-07-23T20:57:55;99974.77;;;20.06;62.99
50696;BME280;36665;51.786;21.594;2022-07-23T21:06:19;99972.65;;;20.13;62.90
50696;BME280;36665;51.786;21.594;2022-07-23T21:14:45;99976.62;;;20.12;63.13
50696;BME280;36665;51.786;21.594;2022-07-23T21:23:08;99990.38;;;20.05;62.86
50696;BME280;36665;51.786;21.594;2022-07-23T21:31:32;100004.88;;;20.00;63.32
50696;BME280;36665;51.786;21.594;2022-07-23T21:39:56;100012.56;;;20.00;63.43
50696;BME280;36665;51.786;21.594;2022-07-23T21:48:19;100013.89;;;19.90;63.64
50696;BME280;36665;51.786;21.594;2022-07-23T21:56:42;100020.15;;;19.78;63.74
50696;BME280;36665;51.786;21.594;2022-07-23T22:05:05;100017.10;;;19.69;63.82
50696;BME280;36665;51.786;21.594;2022-07-23T22:13:28;100024.16;;;19.68;64.04
50696;BME280;36665;51.786;21.594;2022-07-23T22:21:51;100036.06;;;19.60;64.12
50696;BME280;36665;51.786;21.594;2022-07-23T22:30:17;100034.27;;;19.49;64.23
50696;BME280;36665;51.786;21.594;2022-07-23T22:38:41;100028.20;;;19.50;64.67
50696;BME280;36665;51.786;21.594;2022-07-23T22:47:04;100029.88;;;19.52;64.73
50696;BME280;36665;51.786;21.594;2022-07-23T22:55:29;100031.95;;;19.50;64.78
50696;BME280;36665;51.786;21.594;2022-07-23T23:03:58;100032.56;;;19.49;64.83
50696;BME280;36665;51.786;21.594;2022-07-23T23:12:21;100028.02;;;19.53;65.24
50696;BME280;36665;51.786;21.594;2022-07-23T23:20:44;100020.26;;;19.51;65.14
50696;BME280;36665;51.786;21.594;2022-07-23T23:29:07;100014.91;;;19.48;65.19
50696;BME280;36665;51.786;21.594;2022-07-23T23:37:31;100018.15;;;19.51;65.42
50696;BME280;36665;51.786;21.594;2022-07-23T23:46:01;100011.55;;;19.53;65.61
50696;BME280;36665;51.786;21.594;2022-07-23T23:54:24;100011.89;;;19.57;65.47
